LICT/TPS METAR and TAF weather

Enter ICAO airport designator
Station Type Date Time Source
LICT METAR 2021/01/16 01:55 UTC NOAA

LICT 160155Z 04013KT CAVOK 11/06 Q1012


Station Type Date Time Source
LICT Decoded METAR 2021/01/16 01:55 UTC NOAA

Trapani / Birgi, Italy (LICT) 37-55N 012-30E 14M
Jan 15, 2021 - 08:55 PM EST / 2021.01.16 0155 UTC
Wind: from the NE (040 degrees) at 15 MPH (13 KT):0
Visibility: greater than 7 mile(s):0
Temperature: 51 F (11 C)
Dew Point: 42 F (6 C)
Relative Humidity: 71%
Pressure (altimeter): 29.88 in. Hg (1012 hPa)
ob: LICT 160155Z 04013KT CAVOK 11/06 Q1012
cycle: 2

Station Type Date Time Source
LICT TAF 2019/01/11 09:24 UTC NOAA

TAF TAF LICT 110800Z 1109/1121 33012KT 9999 SCT025

Example: see airport list